createdAt,value
2023-11-21T00:02:28.544Z,20.23
2023-11-21T00:05:31.391Z,19.88
2023-11-21T00:08:34.090Z,19.10
2023-11-21T00:11:36.784Z,20.83
2023-11-21T00:14:42.170Z,21.07
2023-11-21T00:17:44.955Z,23.52
2023-11-21T00:20:47.678Z,24.55
2023-11-21T00:23:50.320Z,25.25
2023-11-21T00:26:54.257Z,24.20
2023-11-21T00:29:57.014Z,24.70
2023-11-21T00:32:59.895Z,23.58
2023-11-21T00:36:02.561Z,21.75
2023-11-21T00:39:07.152Z,22.63
2023-11-21T00:42:11.734Z,21.20
2023-11-21T00:45:14.476Z,18.87
2023-11-21T00:48:17.266Z,17.50
2023-11-21T00:51:19.925Z,16.77
2023-11-21T00:54:22.601Z,15.20
2023-11-21T00:57:25.363Z,14.53
2023-11-21T01:00:28.135Z,15.13
2023-11-21T01:03:32.442Z,15.25
2023-11-21T01:06:35.330Z,16.35
2023-11-21T01:09:38.085Z,17.40
2023-11-21T01:12:41.113Z,17.77
2023-11-21T01:15:43.865Z,17.07
2023-11-21T01:18:46.565Z,16.88
2023-11-21T01:21:49.234Z,17.23
2023-11-21T01:24:52.022Z,16.35
2023-11-21T01:27:54.784Z,17.17
2023-11-21T01:30:57.851Z,20.17
2023-11-21T01:34:00.586Z,20.70
2023-11-21T01:37:06.413Z,22.30
2023-11-21T01:40:12.548Z,24.42
2023-11-21T01:43:15.371Z,22.87
2023-11-21T01:46:18.084Z,21.63
2023-11-21T01:49:21.739Z,21.52
2023-11-21T01:52:25.884Z,20.70
2023-11-21T01:55:31.545Z,22.30
2023-11-21T01:58:34.633Z,22.23
2023-11-21T02:01:37.329Z,20.80
2023-11-21T02:04:40.438Z,21.23
2023-11-21T02:07:46.498Z,23.05
2023-11-21T02:10:49.449Z,23.38
2023-11-21T02:13:55.333Z,23.90
2023-11-21T02:16:58.850Z,24.20
2023-11-21T02:20:01.549Z,26.05
2023-11-21T02:23:04.362Z,26.17
2023-11-21T02:26:07.607Z,27.58
2023-11-21T02:29:13.186Z,27.20
2023-11-21T02:32:18.248Z,24.40
2023-11-21T02:35:22.391Z,27.08
2023-11-21T02:38:25.021Z,27.77
2023-11-21T02:41:27.655Z,27.73
2023-11-21T02:44:30.470Z,27.30
2023-11-21T02:47:33.335Z,27.40
2023-11-21T02:50:36.583Z,26.48
2023-11-21T02:53:39.970Z,27.88
2023-11-21T02:56:42.811Z,26.48
2023-11-21T02:59:46.124Z,27.13
2023-11-21T03:02:49.180Z,27.80
2023-11-21T03:05:52.067Z,26.35
2023-11-21T03:08:54.794Z,27.88
2023-11-21T03:11:57.547Z,27.60
2023-11-21T03:15:00.803Z,26.97
2023-11-21T03:18:04.153Z,26.83
2023-11-21T03:21:09.996Z,26.55
2023-11-21T03:24:12.850Z,27.13
2023-11-21T03:27:15.481Z,26.65
2023-11-21T03:30:18.274Z,27.67
2023-11-21T03:33:21.413Z,27.70
2023-11-21T03:36:26.435Z,27.40
2023-11-21T03:39:30.757Z,27.27
2023-11-21T03:42:33.510Z,27.92
2023-11-21T03:45:36.291Z,28.83
2023-11-21T03:48:39.334Z,28.70
2023-11-21T03:51:42.017Z,28.33
2023-11-21T03:54:44.812Z,28.63
2023-11-21T03:57:47.577Z,29.10
2023-11-21T04:00:50.572Z,30.43
2023-11-21T04:03:53.650Z,28.20
2023-11-21T04:06:56.399Z,28.80
2023-11-21T04:09:59.049Z,29.05
2023-11-21T04:13:01.685Z,31.25
2023-11-21T04:16:04.546Z,29.63
2023-11-21T04:19:07.235Z,31.63
2023-11-21T04:22:09.881Z,30.45
2023-11-21T04:25:14.532Z,31.58
2023-11-21T04:28:17.241Z,32.63
2023-11-21T04:31:20.077Z,31.20
2023-11-21T04:34:22.943Z,34.93
2023-11-21T04:37:25.796Z,34.00
2023-11-21T04:40:28.588Z,34.60
2023-11-21T04:43:31.410Z,32.80
2023-11-21T04:46:34.288Z,31.87
2023-11-21T04:49:37.335Z,31.27
2023-11-21T04:52:40.045Z,30.38
2023-11-21T04:55:43.006Z,28.17
2023-11-21T04:58:45.724Z,28.38
2023-11-21T05:01:51.232Z,29.00
2023-11-21T05:04:54.616Z,27.87
2023-11-21T05:07:57.468Z,27.08
2023-11-21T05:11:00.244Z,27.98
2023-11-21T05:14:03.079Z,27.77
2023-11-21T05:17:05.881Z,27.27
2023-11-21T05:20:11.079Z,27.67
2023-11-21T05:23:13.968Z,27.13
2023-11-21T05:26:16.640Z,25.45
2023-11-21T05:29:19.450Z,26.92
2023-11-21T05:32:22.185Z,24.07
2023-11-21T05:35:24.909Z,23.33
2023-11-21T05:38:27.609Z,22.60
2023-11-21T05:41:30.289Z,23.25
2023-11-21T05:44:33.138Z,21.83
2023-11-21T05:47:37.187Z,21.23
2023-11-21T05:50:39.983Z,19.40
2023-11-21T05:53:42.733Z,19.58
2023-11-21T05:56:45.635Z,15.60
2023-11-21T05:59:48.347Z,16.92
2023-11-21T06:02:58.630Z,15.40
2023-11-21T06:06:01.437Z,16.67
2023-11-21T06:09:04.542Z,16.30
2023-11-21T06:12:07.662Z,15.55
2023-11-21T06:15:14.975Z,15.85
2023-11-21T06:18:20.580Z,14.50
2023-11-21T06:21:23.455Z,17.20
2023-11-21T06:24:26.144Z,14.90
2023-11-21T06:27:28.840Z,16.10
2023-11-21T06:30:31.527Z,16.08
2023-11-21T06:33:34.292Z,17.87
2023-11-21T06:36:37.468Z,18.07
2023-11-21T06:39:40.076Z,19.60
2023-11-21T06:42:42.890Z,17.50
2023-11-21T06:45:45.679Z,13.13
2023-11-21T06:48:49.902Z,9.63
2023-11-21T06:51:52.939Z,8.17
2023-11-21T06:54:56.001Z,7.90
2023-11-21T06:57:59.356Z,6.55
2023-11-21T07:01:02.094Z,4.88
2023-11-21T07:04:08.506Z,4.40
2023-11-21T07:07:11.269Z,4.33
2023-11-21T07:10:14.126Z,4.57
2023-11-21T07:13:16.850Z,5.03
2023-11-21T07:16:23.835Z,4.35
2023-11-21T07:19:30.705Z,4.27
2023-11-21T07:22:33.595Z,4.03
2023-11-21T07:25:39.224Z,3.17
2023-11-21T07:28:42.038Z,2.72
2023-11-21T07:31:44.927Z,2.35
2023-11-21T07:34:47.816Z,1.33
2023-11-21T07:37:51.069Z,1.53
2023-11-21T07:40:53.999Z,2.90
2023-11-21T07:43:57.311Z,2.58
2023-11-21T07:47:00.178Z,2.83
2023-11-21T07:50:05.201Z,3.43
2023-11-21T07:53:08.206Z,2.53
2023-11-21T07:56:11.276Z,2.00
2023-11-21T07:59:15.610Z,1.92
2023-11-21T08:02:19.323Z,0.93
2023-11-21T08:05:28.138Z,1.73
2023-11-21T08:08:35.371Z,1.50
2023-11-21T08:11:40.196Z,1.70
2023-11-21T08:14:43.022Z,1.25
2023-11-21T08:17:45.772Z,1.40
2023-11-21T08:20:49.007Z,1.10
2023-11-21T08:23:55.414Z,1.20
2023-11-21T08:26:59.693Z,1.35
2023-11-21T08:30:04.362Z,0.90
2023-11-21T08:33:07.123Z,0.47
2023-11-21T08:36:10.780Z,1.10
2023-11-21T08:39:14.655Z,1.90
2023-11-21T08:42:17.411Z,2.40
2023-11-21T08:45:21.047Z,3.75
2023-11-21T08:48:23.870Z,2.85
2023-11-21T08:51:26.836Z,2.83
2023-11-21T08:54:29.739Z,2.60
2023-11-21T08:57:32.525Z,3.88
2023-11-21T09:00:35.506Z,4.28
2023-11-21T09:03:38.770Z,4.55
2023-11-21T09:06:41.552Z,4.27
2023-11-21T09:09:44.293Z,4.60
2023-11-21T09:12:47.080Z,4.85
2023-11-21T09:15:55.989Z,4.35
2023-11-21T09:19:01.795Z,2.95
2023-11-21T09:22:09.231Z,3.00
2023-11-21T09:25:12.153Z,1.83
2023-11-21T09:28:14.950Z,1.30
2023-11-21T09:31:18.149Z,1.60
2023-11-21T09:34:21.656Z,1.40
2023-11-21T09:37:24.453Z,2.33
2023-11-21T09:40:28.045Z,0.90
2023-11-21T09:43:33.431Z,1.25
2023-11-21T09:46:40.776Z,0.90
2023-11-21T09:49:50.682Z,0.65
2023-11-21T09:53:31.225Z,0.93
2023-11-21T09:56:34.126Z,0.80
2023-11-21T09:59:39.436Z,1.20
2023-11-21T10:02:42.335Z,2.22
2023-11-21T10:05:47.501Z,2.72
2023-11-21T10:08:55.864Z,1.80
2023-11-21T10:12:01.719Z,2.70
2023-11-21T10:15:08.883Z,2.03
2023-11-21T10:18:13.116Z,1.50
2023-11-21T10:21:18.926Z,1.35
2023-11-21T10:24:22.252Z,1.27
2023-11-21T10:27:28.884Z,1.10
2023-11-21T10:30:39.154Z,1.50
2023-11-21T10:33:42.021Z,2.63
2023-11-21T10:36:48.038Z,1.65
2023-11-21T10:39:51.377Z,1.50
2023-11-21T10:42:54.741Z,1.67
2023-11-21T10:46:02.469Z,2.35
2023-11-21T10:49:05.617Z,2.00
2023-11-21T10:52:08.429Z,2.22
2023-11-21T10:55:22.729Z,2.03
2023-11-21T10:58:25.930Z,2.40
2023-11-21T11:01:31.542Z,2.22
2023-11-21T11:04:39.605Z,2.45
2023-11-21T11:07:44.856Z,1.30
2023-11-21T11:10:53.412Z,1.73
2023-11-21T11:13:58.082Z,1.70
2023-11-21T11:17:03.101Z,2.90
2023-11-21T11:20:10.948Z,3.13
2023-11-21T11:23:34.799Z,1.65
2023-11-21T11:27:18.257Z,2.00
2023-11-21T11:30:23.789Z,2.53
2023-11-21T11:33:38.387Z,1.80
2023-11-21T11:37:04.086Z,1.73
2023-11-21T11:40:08.135Z,2.22
2023-11-21T11:43:11.561Z,3.07
2023-11-21T11:46:17.378Z,2.97
2023-11-21T11:49:29.172Z,1.60
2023-11-21T11:52:46.320Z,1.80
2023-11-21T11:56:19.241Z,2.10
2023-11-21T11:59:22.064Z,1.57
2023-11-21T12:02:25.552Z,2.10
2023-11-21T12:05:36.963Z,2.30
2023-11-21T12:08:39.629Z,1.13
2023-11-21T12:11:42.735Z,1.40
2023-11-21T12:14:46.721Z,1.37
2023-11-21T12:17:50.683Z,1.10
2023-11-21T12:20:53.546Z,1.23
2023-11-21T12:23:56.304Z,1.52
2023-11-21T12:26:59.142Z,8.60
2023-11-21T12:30:13.733Z,8.47
2023-11-21T12:33:27.104Z,6.30
2023-11-21T12:36:37.374Z,4.57
2023-11-21T12:39:40.184Z,3.13
2023-11-21T12:42:44.211Z,1.80
2023-11-21T12:45:47.063Z,0.70
2023-11-21T12:48:50.696Z,0.70
2023-11-21T12:51:55.206Z,0.90
2023-11-21T12:54:57.957Z,1.50
2023-11-21T12:58:14.403Z,1.60
2023-11-21T13:01:20.114Z,1.10
2023-11-21T13:04:32.213Z,1.37
2023-11-21T13:07:48.259Z,1.60
2023-11-21T13:10:56.653Z,1.50
2023-11-21T13:14:43.384Z,1.10
2023-11-21T13:21:33.363Z,0.87
2023-11-21T13:24:38.370Z,1.17
2023-11-21T13:27:41.807Z,0.77
2023-11-21T13:30:45.917Z,1.40
2023-11-21T13:33:57.774Z,1.30
2023-11-21T13:37:02.276Z,1.20
2023-11-21T13:40:15.558Z,0.80
2023-11-21T13:43:22.991Z,2.40
2023-11-21T13:46:26.320Z,2.38
2023-11-21T13:49:33.114Z,2.10
2023-11-21T13:52:37.315Z,1.00
2023-11-21T13:55:40.967Z,0.57
2023-11-21T13:59:06.811Z,0.90
2023-11-21T14:02:29.360Z,0.80
2023-11-21T14:05:32.851Z,0.80
2023-11-21T14:08:36.021Z,1.00
2023-11-21T14:11:43.590Z,1.27
2023-11-21T14:14:50.945Z,0.82
2023-11-21T14:17:53.653Z,1.20
2023-11-21T14:20:56.441Z,1.30
2023-11-21T14:23:59.336Z,1.00
2023-11-21T14:27:02.034Z,1.70
2023-11-21T14:30:06.539Z,2.38
2023-11-21T14:33:12.742Z,1.92
2023-11-21T14:36:18.434Z,1.60
2023-11-21T14:39:30.483Z,1.43
2023-11-21T14:42:34.976Z,1.50
2023-11-21T14:45:38.042Z,2.00
2023-11-21T14:48:43.910Z,1.90
2023-11-21T14:52:03.668Z,1.97
2023-11-21T14:55:26.330Z,1.90
2023-11-21T14:58:29.055Z,2.33
2023-11-21T15:01:52.175Z,3.22
2023-11-21T15:05:03.587Z,2.45
2023-11-21T15:08:23.067Z,3.70
2023-11-21T15:11:31.558Z,3.37
2023-11-21T15:14:37.152Z,2.97
2023-11-21T15:17:41.083Z,3.05
2023-11-21T15:20:44.721Z,3.10
2023-11-21T15:23:47.441Z,3.80
2023-11-21T15:26:50.950Z,4.30
2023-11-21T15:29:54.925Z,5.43
2023-11-21T15:32:57.672Z,5.95
2023-11-21T15:36:00.382Z,6.40
2023-11-21T15:39:03.217Z,6.10
2023-11-21T15:42:09.167Z,6.03
2023-11-21T15:45:12.490Z,4.95
2023-11-21T15:48:17.624Z,3.65
2023-11-21T15:51:20.395Z,3.38
2023-11-21T15:54:25.988Z,3.10
2023-11-21T15:57:28.796Z,2.73
2023-11-21T16:00:31.690Z,2.38
2023-11-21T16:03:34.951Z,2.58
2023-11-21T16:06:40.591Z,2.33
2023-11-21T16:09:44.405Z,3.10
2023-11-21T16:12:47.729Z,3.87
2023-11-21T16:15:55.367Z,3.80
2023-11-21T16:18:58.485Z,3.13
2023-11-21T16:22:01.455Z,3.85
2023-11-21T16:25:12.012Z,4.20
2023-11-21T16:28:15.219Z,6.63
2023-11-21T16:31:26.814Z,7.43
2023-11-21T16:34:29.672Z,8.13
2023-11-21T16:37:35.192Z,6.35
2023-11-21T16:40:38.321Z,5.93
2023-11-21T16:43:41.012Z,6.40
2023-11-21T16:47:07.681Z,7.10
2023-11-21T16:50:10.568Z,7.00
2023-11-21T16:53:13.571Z,7.05
2023-11-21T16:56:16.330Z,6.73
2023-11-21T16:59:19.794Z,8.07
2023-11-21T17:02:22.743Z,7.10
2023-11-21T17:05:26.592Z,5.75
2023-11-21T17:08:30.807Z,3.97
2023-11-21T17:11:33.629Z,3.40
2023-11-21T17:14:36.332Z,2.70
2023-11-21T17:17:40.425Z,2.97
2023-11-21T17:20:44.665Z,3.00
2023-11-21T17:23:47.494Z,3.10
2023-11-21T17:26:50.254Z,3.70
2023-11-21T17:29:55.031Z,3.40
2023-11-21T17:32:58.188Z,2.72
2023-11-21T17:36:00.929Z,3.50
2023-11-21T17:39:09.337Z,3.83
2023-11-21T17:42:12.028Z,3.67
2023-11-21T17:45:15.003Z,4.90
2023-11-21T17:48:18.111Z,4.38
2023-11-21T17:51:21.233Z,4.70
2023-11-21T17:54:24.556Z,3.78
2023-11-21T17:57:27.271Z,5.57
2023-11-21T18:00:30.140Z,4.57
2023-11-21T18:03:32.888Z,4.10
2023-11-21T18:06:35.682Z,3.00
2023-11-21T18:09:40.656Z,3.80
2023-11-21T18:12:44.087Z,3.37
2023-11-21T18:15:46.995Z,3.23
2023-11-21T18:18:51.494Z,2.88
2023-11-21T18:21:54.218Z,2.28
2023-11-21T18:24:58.297Z,2.63
2023-11-21T18:28:01.216Z,2.73
2023-11-21T18:31:08.309Z,2.83
2023-11-21T18:34:12.028Z,2.83
2023-11-21T18:37:14.836Z,2.92
2023-11-21T18:40:17.686Z,3.22
2023-11-21T18:43:20.372Z,3.15
2023-11-21T18:46:23.388Z,3.30
2023-11-21T18:49:27.049Z,3.00
2023-11-21T18:52:30.289Z,4.28
2023-11-21T18:55:33.053Z,4.57
2023-11-21T18:58:37.526Z,4.07
2023-11-21T19:01:41.341Z,3.87
2023-11-21T19:04:44.873Z,3.95
2023-11-21T19:07:47.836Z,4.60
2023-11-21T19:10:51.982Z,4.47
2023-11-21T19:13:55.342Z,5.00
2023-11-21T19:16:58.337Z,5.90
2023-11-21T19:20:02.007Z,5.25
2023-11-21T19:23:04.768Z,5.57
2023-11-21T19:26:07.872Z,6.35
2023-11-21T19:29:10.733Z,6.30
2023-11-21T19:32:14.005Z,7.00
2023-11-21T19:35:17.835Z,6.65
2023-11-21T19:38:21.015Z,7.85
2023-11-21T19:41:24.703Z,6.82
2023-11-21T19:44:29.226Z,8.40
2023-11-21T19:47:34.921Z,7.03
2023-11-21T19:50:38.294Z,7.18
2023-11-21T19:53:41.064Z,7.20
2023-11-21T19:56:44.807Z,7.65
2023-11-21T19:59:49.261Z,7.20
2023-11-21T20:02:53.447Z,7.67
2023-11-21T20:05:56.213Z,7.80
2023-11-21T20:09:00.978Z,7.28
2023-11-21T20:12:04.089Z,7.43
2023-11-21T20:15:07.667Z,7.17
2023-11-21T20:18:14.017Z,5.50
2023-11-21T20:21:21.408Z,5.63
2023-11-21T20:24:24.742Z,6.40
2023-11-21T20:27:27.830Z,6.45
2023-11-21T20:30:33.320Z,5.93
2023-11-21T20:33:36.177Z,5.87
2023-11-21T20:36:39.080Z,5.80
2023-11-21T20:39:41.923Z,5.93
2023-11-21T20:42:48.104Z,5.75
2023-11-21T20:45:50.882Z,6.03
2023-11-21T20:48:55.462Z,7.63
2023-11-21T20:51:58.762Z,5.70
2023-11-21T20:55:01.856Z,6.07
2023-11-21T20:58:04.925Z,6.25
2023-11-21T21:01:08.162Z,5.53
2023-11-21T21:04:11.735Z,6.30
2023-11-21T21:07:14.978Z,6.13
2023-11-21T21:10:17.672Z,6.10
2023-11-21T21:13:20.623Z,5.72
2023-11-21T21:16:26.942Z,5.90
2023-11-21T21:19:31.304Z,5.97
2023-11-21T21:22:34.469Z,6.65
2023-11-21T21:25:37.114Z,6.30
2023-11-21T21:28:39.817Z,6.45
2023-11-21T21:31:42.878Z,5.90
2023-11-21T21:34:45.656Z,6.30
2023-11-21T21:37:48.350Z,6.57
2023-11-21T21:40:53.243Z,6.72
2023-11-21T21:43:56.864Z,6.65
2023-11-21T21:46:59.581Z,6.47
2023-11-21T21:50:02.325Z,6.43
2023-11-21T21:53:06.792Z,6.97
2023-11-21T21:56:09.490Z,7.30
2023-11-21T21:59:13.370Z,7.03
2023-11-21T22:02:16.145Z,8.40
2023-11-21T22:05:19.072Z,8.47
2023-11-21T22:08:21.875Z,8.35
2023-11-21T22:11:24.724Z,8.65
2023-11-21T22:14:27.455Z,8.85
2023-11-21T22:17:30.313Z,5.57
2023-11-21T22:20:33.228Z,8.87
2023-11-21T22:23:37.683Z,9.57
2023-11-21T22:26:40.652Z,8.45
2023-11-21T22:29:43.560Z,9.15
2023-11-21T22:32:46.676Z,9.87
2023-11-21T22:35:49.899Z,10.07
2023-11-21T22:38:52.590Z,9.77
2023-11-21T22:41:56.178Z,9.27
2023-11-21T22:44:58.777Z,9.45
2023-11-21T22:48:01.548Z,8.47
2023-11-21T22:51:04.868Z,8.97
2023-11-21T22:54:08.359Z,9.43
2023-11-21T22:57:11.211Z,9.88
2023-11-21T23:00:15.808Z,8.95
2023-11-21T23:03:18.815Z,9.47
2023-11-21T23:06:22.462Z,9.13
2023-11-21T23:09:25.333Z,9.13
2023-11-21T23:12:28.225Z,9.32
2023-11-21T23:15:30.932Z,10.20
2023-11-21T23:18:33.924Z,9.97
2023-11-21T23:21:36.575Z,10.60
2023-11-21T23:24:39.234Z,9.93
2023-11-21T23:27:41.919Z,10.27
2023-11-21T23:30:45.079Z,9.32
2023-11-21T23:33:47.822Z,10.13
2023-11-21T23:36:50.557Z,10.20
2023-11-21T23:39:53.260Z,9.15
2023-11-21T23:42:55.864Z,9.27
2023-11-21T23:45:58.521Z,9.38
2023-11-21T23:49:02.792Z,10.07
2023-11-21T23:52:05.944Z,10.23
2023-11-21T23:55:09.366Z,10.73
2023-11-21T23:58:12.587Z,10.43
